createdAt,value
2023-01-04T00:01:42.807Z,7.62
2023-01-04T00:04:10.035Z,7.74
2023-01-04T00:06:37.363Z,7.61
2023-01-04T00:09:04.629Z,7.38
2023-01-04T00:11:31.724Z,7.13
2023-01-04T00:13:59.582Z,6.91
2023-01-04T00:16:27.742Z,6.70
2023-01-04T00:18:54.972Z,7.11
2023-01-04T00:21:26.665Z,7.68
2023-01-04T00:23:54.759Z,7.72
2023-01-04T00:26:26.397Z,7.51
2023-01-04T00:28:57.832Z,7.21
2023-01-04T00:31:26.392Z,6.90
2023-01-04T00:33:54.509Z,6.62
2023-01-04T00:36:21.739Z,6.36
2023-01-04T00:39:07.670Z,6.13
2023-01-04T00:41:58.823Z,6.66
2023-01-04T00:44:26.910Z,7.18
2023-01-04T00:46:54.261Z,7.15
2023-01-04T00:49:21.308Z,6.91
2023-01-04T00:51:48.273Z,6.59
2023-01-04T00:54:15.976Z,6.31
2023-01-04T00:56:43.212Z,6.06
2023-01-04T00:59:11.161Z,5.79
2023-01-04T01:01:39.190Z,6.16
2023-01-04T01:04:06.456Z,6.71
2023-01-04T01:06:35.301Z,6.79
2023-01-04T01:09:02.549Z,6.59
2023-01-04T01:11:29.769Z,6.34
2023-01-04T01:13:57.500Z,6.08
2023-01-04T01:16:53.008Z,5.83
2023-01-04T01:19:12.199Z,5.57
2023-01-04T01:21:39.098Z,6.09
2023-01-04T01:24:06.200Z,6.68
2023-01-04T01:26:37.450Z,6.75
2023-01-04T01:29:04.381Z,6.50
2023-01-04T01:31:31.382Z,6.15
2023-01-04T01:33:58.459Z,5.85
2023-01-04T01:36:26.132Z,5.59
2023-01-04T01:38:53.668Z,5.34
2023-01-04T01:41:22.987Z,5.11
2023-01-04T01:43:53.102Z,4.86
2023-01-04T01:46:23.264Z,5.31
2023-01-04T01:48:52.447Z,5.93
2023-01-04T01:51:19.793Z,5.97
2023-01-04T01:53:47.959Z,5.78
2023-01-04T01:56:16.258Z,5.52
2023-01-04T01:58:45.637Z,5.26
2023-01-04T02:01:13.297Z,5.01
2023-01-04T02:03:42.671Z,4.79
2023-01-04T02:06:11.934Z,4.55
2023-01-04T02:08:40.350Z,5.00
2023-01-04T02:11:07.277Z,5.60
2023-01-04T02:13:55.358Z,5.64
2023-01-04T02:16:47.387Z,5.33
2023-01-04T02:19:29.724Z,4.96
2023-01-04T02:22:09.371Z,4.65
2023-01-04T02:24:50.813Z,4.36
2023-01-04T02:27:24.766Z,4.09
2023-01-04T02:30:03.965Z,4.63
2023-01-04T02:33:04.060Z,5.25
2023-01-04T02:35:50.163Z,5.28
2023-01-04T02:38:27.998Z,5.10
2023-01-04T02:41:20.834Z,4.89
2023-01-04T02:44:14.937Z,4.67
2023-01-04T02:46:50.625Z,4.46
2023-01-04T02:49:36.487Z,4.31
2023-01-04T02:52:03.458Z,4.99
2023-01-04T02:54:32.604Z,5.53
2023-01-04T02:57:14.682Z,5.56
2023-01-04T02:59:53.613Z,5.31
2023-01-04T03:02:42.372Z,4.99
2023-01-04T03:05:33.520Z,4.71
2023-01-04T03:08:23.594Z,4.46
2023-01-04T03:11:26.453Z,4.24
2023-01-04T03:13:54.082Z,4.99
2023-01-04T03:16:23.686Z,5.47
2023-01-04T03:18:53.020Z,5.44
2023-01-04T03:21:20.199Z,5.19
2023-01-04T03:24:25.843Z,4.89
2023-01-04T03:27:13.514Z,4.51
2023-01-04T03:30:26.277Z,4.20
2023-01-04T03:33:17.262Z,3.88
2023-01-04T03:36:19.705Z,3.64
2023-01-04T03:39:10.529Z,4.48
2023-01-04T03:42:20.088Z,4.99
2023-01-04T03:45:32.886Z,4.84
2023-01-04T03:48:29.570Z,4.46
2023-01-04T03:51:07.700Z,4.09
2023-01-04T03:53:38.451Z,3.81
2023-01-04T03:56:05.544Z,3.56
2023-01-04T03:58:32.592Z,3.93
2023-01-04T04:01:04.037Z,4.78
2023-01-04T04:03:50.713Z,4.98
2023-01-04T04:06:36.841Z,4.77
2023-01-04T04:09:04.621Z,4.42
2023-01-04T04:11:31.605Z,4.11
2023-01-04T04:13:59.360Z,3.80
2023-01-04T04:16:27.692Z,3.50
2023-01-04T04:18:55.052Z,3.24
2023-01-04T04:21:22.207Z,3.69
2023-01-04T04:23:49.316Z,4.26
2023-01-04T04:26:16.542Z,4.30
2023-01-04T04:28:43.671Z,4.08
2023-01-04T04:31:10.661Z,3.82
2023-01-04T04:33:37.894Z,3.56
2023-01-04T04:36:05.343Z,3.32
2023-01-04T04:38:33.257Z,3.07
2023-01-04T04:41:18.906Z,3.51
2023-01-04T04:43:48.485Z,4.14
2023-01-04T04:46:15.579Z,4.15
2023-01-04T04:48:42.518Z,3.92
2023-01-04T04:51:12.709Z,3.64
2023-01-04T04:53:39.616Z,3.38
2023-01-04T04:56:07.662Z,3.10
2023-01-04T04:58:34.765Z,3.49
2023-01-04T05:01:01.896Z,4.02
2023-01-04T05:03:29.225Z,4.11
2023-01-04T05:05:58.984Z,3.95
2023-01-04T05:08:26.103Z,3.69
2023-01-04T05:10:54.324Z,3.42
2023-01-04T05:13:21.343Z,3.17
2023-01-04T05:15:51.480Z,3.61
2023-01-04T05:18:19.796Z,4.22
2023-01-04T05:20:47.165Z,4.34
2023-01-04T05:23:14.890Z,4.18
2023-01-04T05:25:41.882Z,3.95
2023-01-04T05:28:09.289Z,3.70
2023-01-04T05:30:51.268Z,3.48
2023-01-04T05:33:28.827Z,3.93
2023-01-04T05:35:57.931Z,4.45
2023-01-04T05:38:25.426Z,4.47
2023-01-04T05:40:52.624Z,4.27
2023-01-04T05:43:21.047Z,4.06
2023-01-04T05:45:50.283Z,3.83
2023-01-04T05:48:18.065Z,3.62
2023-01-04T05:50:48.077Z,4.11
2023-01-04T05:53:17.681Z,4.77
2023-01-04T05:55:45.664Z,4.89
2023-01-04T05:58:13.579Z,4.67
2023-01-04T06:00:40.548Z,4.43
2023-01-04T06:03:07.566Z,4.20
2023-01-04T06:05:34.519Z,4.00
2023-01-04T06:08:01.408Z,4.44
2023-01-04T06:10:28.370Z,5.00
2023-01-04T06:12:56.442Z,5.08
2023-01-04T06:15:23.715Z,4.92
2023-01-04T06:17:50.613Z,4.71
2023-01-04T06:20:17.862Z,4.50
2023-01-04T06:22:44.775Z,4.31
2023-01-04T06:25:11.773Z,4.14
2023-01-04T06:27:39.571Z,4.69
2023-01-04T06:30:07.051Z,5.35
2023-01-04T06:32:34.120Z,5.54
2023-01-04T06:35:01.306Z,5.42
2023-01-04T06:37:28.270Z,5.20
2023-01-04T06:39:55.463Z,4.99
2023-01-04T06:42:41.069Z,4.77
2023-01-04T06:45:08.408Z,4.60
2023-01-04T06:47:35.434Z,5.22
2023-01-04T06:50:02.488Z,5.89
2023-01-04T06:52:29.844Z,6.00
2023-01-04T06:54:56.785Z,5.78
2023-01-04T06:57:24.163Z,5.52
2023-01-04T06:59:51.087Z,5.31
2023-01-04T07:02:18.058Z,5.11
2023-01-04T07:04:46.579Z,4.95
2023-01-04T07:07:13.470Z,5.41
2023-01-04T07:09:40.520Z,6.06
2023-01-04T07:12:07.468Z,6.19
2023-01-04T07:14:34.475Z,6.04
2023-01-04T07:17:01.547Z,5.81
2023-01-04T07:19:28.598Z,5.54
2023-01-04T07:21:55.942Z,5.29
2023-01-04T07:24:29.587Z,5.13
2023-01-04T07:26:58.943Z,5.67
2023-01-04T07:29:25.799Z,6.32
2023-01-04T07:31:53.137Z,6.45
2023-01-04T07:34:22.079Z,6.33
2023-01-04T07:36:49.150Z,6.13
2023-01-04T07:39:17.602Z,5.93
2023-01-04T07:41:45.177Z,5.75
2023-01-04T07:44:13.703Z,5.64
2023-01-04T07:46:41.417Z,5.55
2023-01-04T07:49:16.729Z,6.14
2023-01-04T07:51:45.190Z,6.85
2023-01-04T07:54:12.237Z,6.97
2023-01-04T07:56:39.107Z,6.83
2023-01-04T07:59:06.991Z,6.65
2023-01-04T08:01:35.740Z,6.39
2023-01-04T08:04:02.717Z,6.14
2023-01-04T08:06:29.716Z,6.02
2023-01-04T08:08:59.571Z,5.93
2023-01-04T08:11:26.432Z,5.83
2023-01-04T08:13:53.526Z,6.43
2023-01-04T08:16:22.955Z,7.13
2023-01-04T08:18:55.931Z,7.32
2023-01-04T08:21:23.147Z,7.22
2023-01-04T08:23:50.150Z,7.01
2023-01-04T08:26:17.235Z,6.81
2023-01-04T08:28:44.589Z,6.63
2023-01-04T08:31:16.436Z,6.53
2023-01-04T08:33:43.738Z,6.44
2023-01-04T08:36:28.047Z,6.40
2023-01-04T08:38:59.857Z,6.38
2023-01-04T08:44:20.408Z,7.02
2023-01-04T08:46:47.785Z,7.70
2023-01-04T08:49:15.102Z,7.87
2023-01-04T08:51:42.297Z,7.78
2023-01-04T08:54:09.559Z,7.59
2023-01-04T08:56:36.721Z,7.37
2023-01-04T08:59:05.087Z,7.20
2023-01-04T09:01:33.716Z,7.13
2023-01-04T09:04:01.446Z,7.06
2023-01-04T09:06:28.992Z,6.98
2023-01-04T09:08:56.655Z,6.93
2023-01-04T09:11:23.897Z,6.92
2023-01-04T09:14:04.584Z,6.91
2023-01-04T09:16:34.391Z,6.86
2023-01-04T09:19:01.623Z,6.80
2023-01-04T09:21:29.075Z,7.46
2023-01-04T09:23:57.252Z,8.24
2023-01-04T09:26:24.282Z,8.51
2023-01-04T09:28:55.208Z,8.43
2023-01-04T09:31:24.443Z,8.18
2023-01-04T09:36:39.476Z,7.80
2023-01-04T09:39:06.519Z,7.68
2023-01-04T09:41:56.828Z,7.60
2023-01-04T09:44:54.539Z,7.52
2023-01-04T09:47:14.968Z,7.40
2023-01-04T09:49:45.859Z,7.32
2023-01-04T09:52:18.393Z,7.19
2023-01-04T09:54:48.154Z,7.06
2023-01-04T09:57:21.983Z,6.98
2023-01-04T09:59:48.956Z,6.95
2023-01-04T10:02:23.256Z,6.93
2023-01-04T10:04:50.609Z,6.99
2023-01-04T10:07:27.342Z,6.96
2023-01-04T10:09:55.484Z,6.98
2023-01-04T10:13:12.409Z,7.02
2023-01-04T10:15:56.074Z,7.06
2023-01-04T10:19:51.085Z,7.10
2023-01-04T10:21:43.484Z,7.21
2023-01-04T10:24:29.606Z,7.37
2023-01-04T10:27:19.999Z,7.49
2023-01-04T10:30:21.750Z,7.62
2023-01-04T10:32:58.757Z,7.66
2023-01-04T10:35:27.273Z,7.69
2023-01-04T10:37:57.743Z,7.75
2023-01-04T10:40:26.166Z,7.81
2023-01-04T10:42:56.429Z,7.86
2023-01-04T10:45:36.086Z,7.95
2023-01-04T10:48:06.785Z,8.00
2023-01-04T10:50:46.653Z,8.07
2023-01-04T10:53:20.831Z,8.20
2023-01-04T10:56:25.914Z,8.20
2023-01-04T10:58:49.280Z,8.31
2023-01-04T11:01:37.932Z,8.42
2023-01-04T11:04:12.503Z,8.40
2023-01-04T11:06:46.882Z,8.27
2023-01-04T11:09:22.790Z,8.20
2023-01-04T11:11:53.297Z,8.15
2023-01-04T11:14:20.288Z,8.19
2023-01-04T11:16:49.031Z,8.60
2023-01-04T11:19:16.250Z,9.35
2023-01-04T11:21:46.913Z,10.19
2023-01-04T11:24:31.652Z,11.09
2023-01-04T11:27:07.795Z,11.64
2023-01-04T11:29:42.125Z,11.83
2023-01-04T11:32:16.830Z,12.17
2023-01-04T11:34:44.847Z,12.23
2023-01-04T11:37:35.625Z,12.26
2023-01-04T11:40:18.375Z,12.66
2023-01-04T11:42:46.583Z,13.13
2023-01-04T11:45:24.328Z,13.61
2023-01-04T11:47:55.848Z,14.22
2023-01-04T11:50:40.415Z,14.69
2023-01-04T11:53:27.555Z,15.00
2023-01-04T11:56:14.562Z,14.89
2023-01-04T11:58:41.866Z,14.93
2023-01-04T12:01:20.431Z,15.09
2023-01-04T12:03:47.536Z,14.99
2023-01-04T12:06:28.571Z,15.13
2023-01-04T12:08:55.647Z,15.31
2023-01-04T12:11:26.749Z,14.82
2023-01-04T13:09:03.851Z,11.21
2023-01-04T13:11:46.172Z,12.04
2023-01-04T13:14:21.581Z,12.21
2023-01-04T13:17:12.015Z,12.28
2023-01-04T13:19:39.105Z,12.16
2023-01-04T13:22:10.806Z,12.03
2023-01-04T13:24:39.095Z,11.94
2023-01-04T13:27:10.428Z,11.89
2023-01-04T13:29:40.290Z,11.80
2023-01-04T13:32:12.051Z,11.82
2023-01-04T13:34:39.659Z,11.88
2023-01-04T13:37:17.310Z,11.91
2023-01-04T13:39:49.119Z,11.75
2023-01-04T13:42:29.581Z,11.49
2023-01-04T13:45:20.136Z,11.29
2023-01-04T13:47:49.284Z,11.01
2023-01-04T13:50:34.458Z,10.75
2023-01-04T13:53:07.904Z,10.47
2023-01-04T13:55:37.345Z,10.25
2023-01-04T13:58:06.541Z,9.96
2023-01-04T14:00:43.235Z,9.60
2023-01-04T14:03:10.474Z,9.21
2023-01-04T14:05:38.045Z,8.85
2023-01-04T14:08:11.648Z,8.53
2023-01-04T14:10:42.563Z,8.18
2023-01-04T14:13:14.285Z,7.89
2023-01-04T14:15:41.462Z,7.59
2023-01-04T14:18:28.850Z,7.29
2023-01-04T14:20:55.755Z,6.91
2023-01-04T14:23:33.151Z,6.60
2023-01-04T14:26:00.025Z,6.37
2023-01-04T14:31:27.971Z,6.00
2023-01-04T14:33:55.779Z,5.81
2023-01-04T14:36:30.591Z,5.62
2023-01-04T14:38:58.954Z,5.44
2023-01-04T14:41:32.848Z,5.28
2023-01-04T14:44:00.858Z,5.14
2023-01-04T14:46:28.920Z,4.99
2023-01-04T14:48:55.848Z,4.81
2023-01-04T14:51:34.367Z,4.66
2023-01-04T14:54:01.344Z,4.49
2023-01-04T14:56:28.413Z,4.34
2023-01-04T14:58:55.482Z,3.87
2023-01-04T15:01:22.774Z,4.14
2023-01-04T15:03:49.971Z,4.73
2023-01-04T15:06:17.108Z,4.84
2023-01-04T15:08:45.495Z,4.66
2023-01-04T15:11:13.312Z,4.40
2023-01-04T15:13:40.809Z,4.18
2023-01-04T15:16:09.416Z,3.98
2023-01-04T15:18:36.412Z,3.80
2023-01-04T15:21:04.140Z,3.62
2023-01-04T15:23:31.580Z,3.46
2023-01-04T15:26:05.738Z,3.29
2023-01-04T15:28:34.901Z,3.13
2023-01-04T15:31:06.445Z,2.96
2023-01-04T15:33:35.717Z,3.40
2023-01-04T15:36:04.147Z,4.04
2023-01-04T15:38:31.117Z,4.17
2023-01-04T15:41:02.933Z,4.03
2023-01-04T15:43:35.972Z,3.76
2023-01-04T15:46:04.999Z,3.49
2023-01-04T15:48:32.158Z,3.25
2023-01-04T15:51:02.911Z,3.03
2023-01-04T15:53:29.770Z,2.80
2023-01-04T15:56:07.143Z,2.64
2023-01-04T15:58:34.316Z,2.47
2023-01-04T16:01:08.034Z,3.02
2023-01-04T16:03:36.103Z,3.73
2023-01-04T16:06:11.244Z,3.87
2023-01-04T16:08:38.379Z,3.78
2023-01-04T16:11:23.687Z,3.59
2023-01-04T16:13:52.337Z,3.35
2023-01-04T16:16:20.208Z,3.16
2023-01-04T16:18:48.795Z,2.99
2023-01-04T16:21:16.776Z,2.83
2023-01-04T16:23:43.664Z,3.31
2023-01-04T16:26:12.800Z,3.98
2023-01-04T16:28:40.021Z,4.13
2023-01-04T16:31:07.678Z,3.97
2023-01-04T16:33:35.797Z,3.75
2023-01-04T16:36:07.430Z,3.50
2023-01-04T16:38:42.055Z,3.28
2023-01-04T16:41:11.330Z,3.08
2023-01-04T16:43:48.661Z,2.89
2023-01-04T16:46:19.303Z,3.43
2023-01-04T16:48:55.423Z,4.07
2023-01-04T16:51:23.411Z,4.16
2023-01-04T16:53:50.599Z,4.01
2023-01-04T16:56:21.549Z,3.78
2023-01-04T16:58:48.469Z,3.54
2023-01-04T17:01:20.121Z,3.33
2023-01-04T17:03:47.951Z,3.13
2023-01-04T17:06:19.939Z,2.99
2023-01-04T17:08:47.713Z,3.50
2023-01-04T17:12:04.929Z,4.18
2023-01-04T17:14:10.207Z,4.32
2023-01-04T17:16:37.768Z,4.17
2023-01-04T17:19:04.731Z,3.94
2023-01-04T17:21:35.540Z,3.72
2023-01-04T17:24:03.252Z,3.49
2023-01-04T17:26:31.304Z,3.32
2023-01-04T17:28:58.614Z,3.14
2023-01-04T17:31:27.847Z,3.60
2023-01-04T17:33:55.023Z,4.24
2023-01-04T17:36:22.270Z,4.38
2023-01-04T17:38:49.432Z,4.24
2023-01-04T17:41:21.391Z,4.01
2023-01-04T17:43:50.836Z,3.77
2023-01-04T17:46:23.169Z,3.54
2023-01-04T17:49:17.672Z,3.34
2023-01-04T17:51:39.473Z,3.84
2023-01-04T17:54:06.486Z,4.31
2023-01-04T17:56:34.600Z,4.26
2023-01-04T17:59:02.797Z,4.02
2023-01-04T18:01:30.093Z,3.79
2023-01-04T18:03:57.884Z,3.51
2023-01-04T18:06:35.433Z,3.36
2023-01-04T18:09:03.662Z,3.11
2023-01-04T18:11:30.966Z,3.67
2023-01-04T18:13:57.904Z,4.24
2023-01-04T18:16:26.845Z,4.29
2023-01-04T18:18:54.579Z,3.97
2023-01-04T18:21:28.336Z,3.65
2023-01-04T18:29:33.658Z,3.91
2023-01-04T18:32:00.719Z,4.37
2023-01-04T18:34:27.690Z,4.32
2023-01-04T18:36:55.958Z,4.09
2023-01-04T18:39:22.954Z,3.90
2023-01-04T18:41:49.771Z,3.66
2023-01-04T18:44:34.899Z,3.49
2023-01-04T18:47:03.051Z,3.34
2023-01-04T18:49:30.067Z,3.92
2023-01-04T18:51:56.938Z,4.61
2023-01-04T18:54:24.132Z,4.73
2023-01-04T18:56:56.994Z,4.64
2023-01-04T18:59:28.628Z,4.43
2023-01-04T19:02:01.196Z,4.19
2023-01-04T19:04:33.678Z,3.95
2023-01-04T19:07:00.960Z,3.75
2023-01-04T19:09:28.063Z,4.17
2023-01-04T19:11:55.018Z,4.68
2023-01-04T19:14:22.306Z,4.80
2023-01-04T19:16:49.504Z,4.62
2023-01-04T21:21:12.273Z,2.61
2023-01-04T21:23:40.891Z,3.96
2023-01-04T21:26:08.502Z,4.98
2023-01-04T21:28:35.842Z,5.36
2023-01-04T21:31:02.770Z,5.39
2023-01-04T21:33:30.590Z,5.36
2023-01-04T21:35:57.468Z,5.28
2023-01-04T21:38:27.201Z,5.19
2023-01-04T21:40:54.106Z,5.11
2023-01-04T21:43:21.098Z,5.04
2023-01-04T21:45:48.034Z,4.97
2023-01-04T21:48:15.024Z,5.56
2023-01-04T21:50:41.903Z,6.31
2023-01-04T21:53:08.774Z,6.51
2023-01-04T21:55:36.322Z,6.45
2023-01-04T21:58:03.971Z,6.31
2023-01-04T22:00:30.951Z,6.12
2023-01-04T22:02:57.884Z,5.95
2023-01-04T22:05:24.942Z,5.79
2023-01-04T22:07:51.969Z,5.66
2023-01-04T22:10:19.143Z,5.53
2023-01-04T22:12:48.050Z,5.44
2023-01-04T22:15:15.162Z,5.33
2023-01-04T22:17:42.070Z,5.88
2023-01-04T22:20:09.919Z,6.60
2023-01-04T22:22:36.857Z,6.79
2023-01-04T22:25:03.964Z,6.70
2023-01-04T22:27:31.107Z,6.48
2023-01-04T22:29:58.138Z,6.28
2023-01-04T22:32:24.994Z,6.08
2023-01-04T22:34:52.045Z,5.94
2023-01-04T22:37:19.065Z,5.77
2023-01-04T22:39:46.000Z,5.70
2023-01-04T22:42:12.939Z,5.65
2023-01-04T22:44:39.941Z,6.19
2023-01-04T22:47:06.875Z,6.89
2023-01-04T22:49:33.836Z,7.03
2023-01-04T22:52:00.776Z,6.92
2023-01-04T22:54:27.702Z,6.73
2023-01-04T22:56:54.747Z,6.47
2023-01-04T22:59:23.049Z,6.31
2023-01-04T23:01:50.176Z,6.15
2023-01-04T23:04:19.019Z,6.02
2023-01-04T23:06:46.271Z,5.92
2023-01-04T23:09:15.163Z,5.86
2023-01-04T23:11:42.359Z,6.45
2023-01-04T23:14:14.983Z,7.14
2023-01-04T23:16:43.884Z,7.37
2023-01-04T23:19:13.832Z,7.32
2023-01-04T23:21:40.883Z,7.16
2023-01-04T23:24:09.887Z,7.01
2023-01-04T23:26:36.976Z,6.93
2023-01-04T23:29:03.971Z,6.86
2023-01-04T23:31:32.118Z,6.83
2023-01-04T23:34:01.452Z,6.82
2023-01-04T23:36:30.343Z,6.81
2023-01-04T23:39:01.283Z,6.81
2023-01-04T23:41:47.212Z,6.85
2023-01-04T23:44:15.278Z,7.75
2023-01-04T23:46:42.320Z,8.54
2023-01-04T23:49:10.057Z,8.77
2023-01-04T23:51:37.428Z,8.73
2023-01-04T23:54:05.046Z,8.57
2023-01-04T23:56:35.027Z,8.50
2023-01-04T23:59:02.452Z,8.38
